createdAt,value
2019-05-26T00:00:43.501Z,49.20
2019-05-26T00:03:12.100Z,49.30
2019-05-26T00:05:40.713Z,49.30
2019-05-26T00:08:09.287Z,49.30
2019-05-26T00:10:37.865Z,49.40
2019-05-26T00:13:06.452Z,49.40
2019-05-26T00:15:34.974Z,49.50
2019-05-26T00:18:03.606Z,49.60
2019-05-26T00:20:32.230Z,49.60
2019-05-26T00:23:00.787Z,49.70
2019-05-26T00:25:29.304Z,49.70
2019-05-26T00:27:57.809Z,49.80
2019-05-26T00:30:26.301Z,49.80
2019-05-26T00:32:54.908Z,49.80
2019-05-26T00:35:23.509Z,49.90
2019-05-26T00:37:52.019Z,49.90
2019-05-26T00:40:20.570Z,49.90
2019-05-26T00:42:49.108Z,50.00
2019-05-26T00:45:17.680Z,50.00
2019-05-26T00:47:46.233Z,50.10
2019-05-26T00:50:15.121Z,50.10
2019-05-26T00:52:43.639Z,50.10
2019-05-26T00:55:12.178Z,50.10
2019-05-26T00:57:40.883Z,50.10
2019-05-26T01:00:09.706Z,50.20
2019-05-26T01:02:38.318Z,50.10
2019-05-26T01:05:07.411Z,50.20
2019-05-26T01:07:36.682Z,50.10
2019-05-26T01:10:08.105Z,50.20
2019-05-26T01:12:36.695Z,50.20
2019-05-26T01:15:06.177Z,50.20
2019-05-26T01:17:34.714Z,50.20
2019-05-26T01:20:03.308Z,50.20
2019-05-26T01:22:31.899Z,50.20
2019-05-26T01:25:00.438Z,50.30
2019-05-26T01:27:29.046Z,50.30
2019-05-26T01:29:57.641Z,50.40
2019-05-26T01:32:26.231Z,50.30
2019-05-26T01:34:54.900Z,50.40
2019-05-26T01:37:23.409Z,50.40
2019-05-26T01:39:51.957Z,50.50
2019-05-26T01:42:20.474Z,50.50
2019-05-26T01:44:48.996Z,50.60
2019-05-26T01:47:17.507Z,50.60
2019-05-26T01:49:46.060Z,50.60
2019-05-26T01:52:14.656Z,50.60
2019-05-26T01:54:43.211Z,50.60
2019-05-26T01:57:11.725Z,50.60
2019-05-26T01:59:40.197Z,50.60
2019-05-26T02:02:08.717Z,50.50
2019-05-26T02:04:37.282Z,50.50
2019-05-26T02:07:05.855Z,50.50
2019-05-26T02:09:34.434Z,50.50
2019-05-26T02:12:03.025Z,50.50
2019-05-26T02:14:31.603Z,50.50
2019-05-26T02:17:00.158Z,50.50
2019-05-26T02:19:28.697Z,50.50
2019-05-26T02:21:57.240Z,50.50
2019-05-26T02:24:25.734Z,50.60
2019-05-26T02:26:54.281Z,50.60
2019-05-26T02:29:22.867Z,50.70
2019-05-26T02:31:51.427Z,50.70
2019-05-26T02:34:19.994Z,50.70
2019-05-26T02:36:48.574Z,50.80
2019-05-26T02:39:17.058Z,50.80
2019-05-26T02:41:45.617Z,50.80
2019-05-26T02:44:14.209Z,50.90
2019-05-26T02:46:42.775Z,50.90
2019-05-26T02:49:11.284Z,50.90
2019-05-26T02:51:39.881Z,50.90
2019-05-26T02:54:08.443Z,50.90
2019-05-26T02:56:36.919Z,50.90
2019-05-26T02:59:05.498Z,50.90
2019-05-26T03:01:33.984Z,50.80
2019-05-26T03:04:02.538Z,50.80
2019-05-26T03:06:31.225Z,50.90
2019-05-26T03:09:20.538Z,50.90
2019-05-26T03:11:30.118Z,50.90
2019-05-26T03:13:58.602Z,51.00
2019-05-26T03:16:27.225Z,51.00
2019-05-26T03:18:55.792Z,51.00
2019-05-26T03:21:24.350Z,51.00
2019-05-26T03:23:53.798Z,51.00
2019-05-26T03:26:22.330Z,51.00
2019-05-26T03:28:50.902Z,51.10
2019-05-26T03:31:19.416Z,51.10
2019-05-26T03:33:47.962Z,51.10
2019-05-26T03:36:16.531Z,50.90
2019-05-26T03:38:45.042Z,50.80
2019-05-26T03:41:13.516Z,50.80
2019-05-26T03:43:42.041Z,50.70
2019-05-26T03:46:18.455Z,50.80
2019-05-26T03:48:46.980Z,50.90
2019-05-26T03:51:15.566Z,51.00
2019-05-26T03:53:44.093Z,51.00
2019-05-26T03:56:12.657Z,51.00
2019-05-26T03:58:41.163Z,51.10
2019-05-26T04:01:09.650Z,51.10
2019-05-26T04:03:38.159Z,51.20
2019-05-26T04:06:06.645Z,51.20
2019-05-26T04:08:35.237Z,51.20
2019-05-26T04:11:03.768Z,51.20
2019-05-26T04:13:32.278Z,51.20
2019-05-26T04:16:01.012Z,51.20
2019-05-26T04:18:29.538Z,51.20
2019-05-26T04:20:58.142Z,51.20
2019-05-26T04:23:26.675Z,51.20
2019-05-26T04:25:55.405Z,51.20
2019-05-26T04:28:23.933Z,51.20
2019-05-26T04:30:52.470Z,51.20
2019-05-26T04:33:20.989Z,51.20
2019-05-26T04:35:49.529Z,51.20
2019-05-26T04:38:18.042Z,51.30
2019-05-26T04:40:46.693Z,51.30
2019-05-26T04:43:15.443Z,51.40
2019-05-26T04:45:44.108Z,51.30
2019-05-26T04:48:12.681Z,51.40
2019-05-26T04:50:41.186Z,51.40
2019-05-26T04:53:09.696Z,51.40
2019-05-26T04:55:38.281Z,51.30
2019-05-26T04:58:06.800Z,51.30
2019-05-26T05:00:35.357Z,51.40
2019-05-26T05:03:03.934Z,51.50
2019-05-26T05:05:32.591Z,51.50
2019-05-26T05:08:01.108Z,51.50
2019-05-26T05:10:41.967Z,51.60
2019-05-26T05:12:59.819Z,51.60
2019-05-26T05:15:28.307Z,51.50
2019-05-26T05:17:56.794Z,51.40
2019-05-26T05:20:25.342Z,51.40
2019-05-26T05:22:54.162Z,51.50
2019-05-26T05:25:22.693Z,51.50
2019-05-26T05:27:51.285Z,51.50
2019-05-26T05:30:20.292Z,51.50
2019-05-26T05:32:48.802Z,51.50
2019-05-26T05:35:17.329Z,51.60
2019-05-26T05:37:45.812Z,51.50
2019-05-26T05:40:14.292Z,51.30
2019-05-26T05:42:42.875Z,51.20
2019-05-26T05:45:11.374Z,51.20
2019-05-26T05:47:39.985Z,51.10
2019-05-26T05:50:11.541Z,51.10
2019-05-26T05:52:40.073Z,51.20
2019-05-26T05:55:08.640Z,51.20
2019-05-26T05:57:37.136Z,51.20
2019-05-26T06:00:08.076Z,51.20
2019-05-26T06:02:36.722Z,51.20
2019-05-26T06:05:08.000Z,51.10
2019-05-26T06:07:36.544Z,51.20
2019-05-26T06:10:09.626Z,51.20
2019-05-26T06:12:38.188Z,51.10
2019-05-26T06:15:10.369Z,51.10
2019-05-26T06:17:38.923Z,51.20
2019-05-26T06:20:08.844Z,51.10
2019-05-26T06:22:37.356Z,51.00
2019-05-26T06:25:06.267Z,50.90
2019-05-26T06:27:34.773Z,50.90
2019-05-26T06:30:03.754Z,51.00
2019-05-26T06:32:32.257Z,51.00
2019-05-26T06:35:00.822Z,51.10
2019-05-26T06:37:29.368Z,51.10
2019-05-26T06:39:57.866Z,51.20
2019-05-26T06:42:26.398Z,51.10
2019-05-26T06:44:54.879Z,51.20
2019-05-26T06:47:23.564Z,51.20
2019-05-26T06:49:52.049Z,51.20
2019-05-26T06:52:20.538Z,51.10
2019-05-26T06:54:49.059Z,51.20
2019-05-26T06:57:17.569Z,51.20
2019-05-26T06:59:46.150Z,51.20
2019-05-26T07:02:14.761Z,51.20
2019-05-26T07:04:43.302Z,51.10
2019-05-26T07:07:11.913Z,51.10
2019-05-26T07:09:40.481Z,51.20
2019-05-26T07:12:08.999Z,51.20
2019-05-26T07:14:37.634Z,51.30
2019-05-26T07:17:06.214Z,51.30
2019-05-26T07:19:34.796Z,51.30
2019-05-26T07:22:03.318Z,51.40
2019-05-26T07:24:32.006Z,51.40
2019-05-26T07:27:00.573Z,51.50
2019-05-26T07:29:29.102Z,51.50
2019-05-26T07:31:57.733Z,51.40
2019-05-26T07:34:26.292Z,51.40
2019-05-26T07:36:54.793Z,51.30
2019-05-26T07:39:23.829Z,51.30
2019-05-26T07:42:08.808Z,51.30
2019-05-26T07:44:22.580Z,51.20
2019-05-26T07:46:51.214Z,51.30
2019-05-26T07:49:19.768Z,51.30
2019-05-26T07:51:48.328Z,51.10
2019-05-26T07:54:25.485Z,51.20
2019-05-26T07:56:47.166Z,51.20
2019-05-26T07:59:15.761Z,51.50
2019-05-26T08:01:44.316Z,51.50
2019-05-26T08:04:12.850Z,51.40
2019-05-26T08:06:41.428Z,51.30
2019-05-26T08:09:10.091Z,51.20
2019-05-26T08:11:38.769Z,51.20
2019-05-26T08:14:07.305Z,51.30
2019-05-26T08:16:35.932Z,51.40
2019-05-26T08:19:04.542Z,51.50
2019-05-26T08:21:33.089Z,51.60
2019-05-26T08:24:01.665Z,51.30
2019-05-26T08:26:30.252Z,51.40
2019-05-26T08:28:58.902Z,51.40
2019-05-26T08:31:27.414Z,51.50
2019-05-26T08:33:55.952Z,51.40
2019-05-26T08:36:24.452Z,51.20
2019-05-26T08:38:53.030Z,51.40
2019-05-26T08:41:21.553Z,51.50
2019-05-26T08:43:50.064Z,51.90
2019-05-26T08:46:18.581Z,52.30
2019-05-26T08:48:47.170Z,52.20
2019-05-26T08:51:15.667Z,52.30
2019-05-26T08:53:44.205Z,52.20
2019-05-26T08:56:12.757Z,52.10
2019-05-26T08:58:41.528Z,51.90
2019-05-26T09:01:10.035Z,51.90
2019-05-26T09:03:39.003Z,52.10
2019-05-26T09:06:07.569Z,52.00
2019-05-26T09:08:36.134Z,51.90
2019-05-26T09:11:04.661Z,52.10
2019-05-26T09:13:33.187Z,51.90
2019-05-26T09:16:01.724Z,51.70
2019-05-26T09:18:30.247Z,51.50
2019-05-26T09:20:58.740Z,51.20
2019-05-26T09:23:27.225Z,51.10
2019-05-26T09:25:55.735Z,51.20
2019-05-26T09:28:24.239Z,51.30
2019-05-26T09:30:52.754Z,51.50
2019-05-26T09:33:21.274Z,51.70
2019-05-26T09:35:49.777Z,51.70
2019-05-26T09:38:18.425Z,51.50
2019-05-26T09:40:47.010Z,51.50
2019-05-26T09:43:16.702Z,51.70
2019-05-26T09:45:45.487Z,51.60
2019-05-26T09:48:14.088Z,51.70
2019-05-26T09:50:42.672Z,51.60
2019-05-26T09:53:11.168Z,51.60
2019-05-26T09:55:39.679Z,51.60
2019-05-26T09:58:08.386Z,51.60
2019-05-26T10:00:37.041Z,51.70
2019-05-26T10:03:05.557Z,51.90
2019-05-26T10:05:34.135Z,51.80
2019-05-26T10:08:02.615Z,51.70
2019-05-26T10:10:31.241Z,51.70
2019-05-26T10:12:59.712Z,51.70
2019-05-26T10:15:28.300Z,51.80
2019-05-26T10:17:56.869Z,51.70
2019-05-26T10:20:25.347Z,51.50
2019-05-26T10:22:53.891Z,51.30
2019-05-26T10:25:22.450Z,51.30
2019-05-26T10:27:51.000Z,51.40
2019-05-26T10:30:19.664Z,51.40
2019-05-26T10:32:48.151Z,51.40
2019-05-26T10:35:16.652Z,51.20
2019-05-26T10:37:45.158Z,51.20
2019-05-26T10:40:13.903Z,51.10
2019-05-26T10:42:42.483Z,51.10
2019-05-26T10:45:11.073Z,51.10
2019-05-26T10:47:39.735Z,51.20
2019-05-26T10:50:08.628Z,51.10
2019-05-26T10:52:37.204Z,51.00
2019-05-26T10:55:07.393Z,51.10
2019-05-26T10:57:35.952Z,51.20
2019-05-26T11:00:05.827Z,51.30
2019-05-26T11:02:34.376Z,51.40
2019-05-26T11:05:03.605Z,51.60
2019-05-26T11:07:32.212Z,51.40
2019-05-26T11:10:00.722Z,51.30
2019-05-26T11:12:29.220Z,51.30
2019-05-26T11:14:57.775Z,51.20
2019-05-26T11:17:26.253Z,51.10
2019-05-26T11:19:54.762Z,51.00
2019-05-26T11:22:23.333Z,51.00
2019-05-26T11:24:51.903Z,51.10
2019-05-26T11:27:20.412Z,51.30
2019-05-26T11:29:48.929Z,51.50
2019-05-26T11:32:17.616Z,51.70
2019-05-26T11:35:00.627Z,51.90
2019-05-26T11:37:16.560Z,51.90
2019-05-26T11:39:45.049Z,52.00
2019-05-26T11:42:14.338Z,52.00
2019-05-26T11:44:43.085Z,52.00
2019-05-26T11:47:11.672Z,51.80
2019-05-26T11:49:40.582Z,51.70
2019-05-26T11:52:09.104Z,51.60
2019-05-26T11:54:37.687Z,51.40
2019-05-26T11:57:06.428Z,51.40
2019-05-26T11:59:34.992Z,51.30
2019-05-26T12:02:03.583Z,51.10
2019-05-26T12:04:32.255Z,51.00
2019-05-26T12:07:04.208Z,50.90
2019-05-26T12:09:31.104Z,51.10
2019-05-26T12:11:59.733Z,51.30
2019-05-26T12:14:34.668Z,51.60
2019-05-26T12:19:46.629Z,52.00
2019-05-26T12:22:15.229Z,52.00
2019-05-26T12:24:43.756Z,52.00
2019-05-26T12:27:12.242Z,51.80
2019-05-26T12:29:40.787Z,51.70
2019-05-26T12:32:09.349Z,51.40
2019-05-26T12:34:37.977Z,51.20
2019-05-26T12:37:06.504Z,51.10
2019-05-26T12:39:35.073Z,50.90
2019-05-26T12:42:03.628Z,50.80
2019-05-26T12:44:32.155Z,51.00
2019-05-26T12:47:00.719Z,51.10
2019-05-26T12:49:29.517Z,51.20
2019-05-26T12:51:58.198Z,51.00
2019-05-26T12:54:26.780Z,51.30
2019-05-26T12:56:55.419Z,50.50
2019-05-26T12:59:24.142Z,50.40
2019-05-26T13:01:52.724Z,50.30
2019-05-26T13:04:21.292Z,50.50
2019-05-26T13:06:49.911Z,50.60
2019-05-26T13:09:18.468Z,50.60
2019-05-26T13:11:47.055Z,50.60
2019-05-26T13:14:15.566Z,50.90
2019-05-26T13:16:44.041Z,49.90
2019-05-26T13:19:12.567Z,49.80
2019-05-26T13:21:41.135Z,49.90
2019-05-26T13:24:09.676Z,50.00
2019-05-26T13:26:38.194Z,49.90
2019-05-26T13:29:06.679Z,49.70
2019-05-26T13:31:35.269Z,49.80
2019-05-26T13:34:03.863Z,49.40
2019-05-26T13:36:32.381Z,49.40
2019-05-26T13:39:01.255Z,49.50
2019-05-26T13:41:29.890Z,49.50
2019-05-26T13:43:58.428Z,49.40
2019-05-26T13:46:26.936Z,49.50
2019-05-26T13:48:55.577Z,49.50
2019-05-26T13:51:24.105Z,49.30
2019-05-26T13:53:52.785Z,49.20
2019-05-26T13:56:21.854Z,49.10
2019-05-26T13:58:50.400Z,49.00
2019-05-26T14:01:18.895Z,48.80
2019-05-26T14:03:47.453Z,48.80
2019-05-26T14:06:16.062Z,48.70
2019-05-26T14:08:44.576Z,48.60
2019-05-26T14:11:13.343Z,48.70
2019-05-26T14:13:41.924Z,48.70
2019-05-26T14:16:10.586Z,48.50
2019-05-26T14:18:39.115Z,48.20
2019-05-26T14:21:07.669Z,48.30
2019-05-26T14:23:36.277Z,48.30
2019-05-26T14:26:04.888Z,48.20
2019-05-26T14:28:33.397Z,48.10
2019-05-26T14:31:01.946Z,48.00
2019-05-26T14:33:30.458Z,47.60
2019-05-26T14:35:58.984Z,47.10
2019-05-26T14:38:42.347Z,46.50
2019-05-26T14:40:57.802Z,45.80
2019-05-26T14:43:26.505Z,45.60
2019-05-26T14:45:55.132Z,45.60
2019-05-26T14:48:23.669Z,46.10
2019-05-26T14:50:52.424Z,46.50
2019-05-26T14:53:21.013Z,47.00
2019-05-26T14:55:50.380Z,47.30
2019-05-26T14:58:18.939Z,47.20
2019-05-26T15:00:47.499Z,46.70
2019-05-26T15:03:16.121Z,46.60
2019-05-26T15:05:44.677Z,46.90
2019-05-26T15:08:13.177Z,47.10
2019-05-26T15:10:41.785Z,47.40
2019-05-26T15:13:10.249Z,47.50
2019-05-26T15:15:38.827Z,47.80
2019-05-26T15:18:07.446Z,48.10
2019-05-26T15:20:35.972Z,48.30
2019-05-26T15:23:04.635Z,48.30
2019-05-26T15:25:33.234Z,48.30
2019-05-26T15:28:01.965Z,48.30
2019-05-26T15:30:30.637Z,48.40
2019-05-26T15:32:59.178Z,48.50
2019-05-26T15:35:27.732Z,48.50
2019-05-26T15:37:56.237Z,48.60
2019-05-26T15:40:24.727Z,48.70
2019-05-26T15:42:53.304Z,48.60
2019-05-26T15:45:21.925Z,48.40
2019-05-26T15:47:50.632Z,46.20
2019-05-26T15:50:20.279Z,43.80
2019-05-26T15:52:48.894Z,44.00
2019-05-26T15:55:17.508Z,44.20
2019-05-26T15:57:46.079Z,44.50
2019-05-26T16:00:14.658Z,44.60
2019-05-26T16:02:43.332Z,43.70
2019-05-26T16:05:12.020Z,43.80
2019-05-26T16:07:40.601Z,44.70
2019-05-26T16:10:09.306Z,45.60
2019-05-26T16:12:37.895Z,46.30
2019-05-26T16:15:07.177Z,46.80
2019-05-26T16:17:38.554Z,47.40
2019-05-26T16:20:08.470Z,47.70
2019-05-26T16:22:37.125Z,48.00
2019-05-26T16:25:06.140Z,48.10
2019-05-26T16:27:34.763Z,48.30
2019-05-26T16:30:05.127Z,48.80
2019-05-26T16:32:33.974Z,47.10
2019-05-26T16:35:02.734Z,45.10
2019-05-26T16:37:31.473Z,44.10
2019-05-26T16:40:00.152Z,44.10
2019-05-26T16:42:28.729Z,45.30
2019-05-26T16:44:57.344Z,45.70
2019-05-26T16:47:25.957Z,44.20
2019-05-26T16:49:54.468Z,43.60
2019-05-26T16:52:22.973Z,43.10
2019-05-26T16:54:51.697Z,44.60
2019-05-26T16:57:20.315Z,46.00
2019-05-26T16:59:48.894Z,47.30
2019-05-26T17:02:17.724Z,47.80
2019-05-26T17:04:46.415Z,47.80
2019-05-26T17:07:15.116Z,47.90
2019-05-26T17:09:43.847Z,47.90
2019-05-26T17:12:12.575Z,48.00
2019-05-26T17:14:41.176Z,48.10
2019-05-26T17:17:14.633Z,48.20
2019-05-26T17:19:40.134Z,48.20
2019-05-26T17:22:08.778Z,48.20
2019-05-26T17:24:37.375Z,48.30
2019-05-26T17:27:05.976Z,48.40
2019-05-26T17:29:34.621Z,48.70
2019-05-26T17:32:03.244Z,49.20
2019-05-26T17:34:31.832Z,49.50
2019-05-26T17:37:00.492Z,49.70
2019-05-26T17:39:29.045Z,49.80
2019-05-26T17:41:57.561Z,50.70
2019-05-26T17:44:26.087Z,50.20
2019-05-26T17:46:54.663Z,50.30
2019-05-26T17:49:23.217Z,50.40
2019-05-26T17:51:51.860Z,50.40
2019-05-26T17:54:20.440Z,50.40
2019-05-26T17:56:49.034Z,50.50
2019-05-26T17:59:17.669Z,50.50
2019-05-26T18:01:46.317Z,50.50
2019-05-26T18:04:15.009Z,50.60
2019-05-26T18:06:43.658Z,50.70
2019-05-26T18:09:12.575Z,50.70
2019-05-26T18:11:41.310Z,50.80
2019-05-26T18:14:09.926Z,50.90
2019-05-26T18:16:38.560Z,50.90
2019-05-26T18:19:07.167Z,50.90
2019-05-26T18:21:35.789Z,50.80
2019-05-26T18:24:04.673Z,50.80
2019-05-26T18:26:33.262Z,50.80
2019-05-26T18:29:02.774Z,50.80
2019-05-26T18:31:31.374Z,50.90
2019-05-26T18:33:59.949Z,51.10
2019-05-26T18:36:28.637Z,51.20
2019-05-26T18:38:57.195Z,51.30
2019-05-26T18:41:25.811Z,51.40
2019-05-26T18:43:54.383Z,51.40
2019-05-26T18:46:22.898Z,51.40
2019-05-26T18:48:51.468Z,51.50
2019-05-26T18:51:19.977Z,51.50
2019-05-26T18:53:48.574Z,51.70
2019-05-26T18:56:17.487Z,51.70
2019-05-26T18:58:46.003Z,51.90
2019-05-26T19:01:14.627Z,51.90
2019-05-26T19:03:43.529Z,52.00
2019-05-26T19:06:12.098Z,52.10
2019-05-26T19:08:40.677Z,52.10
2019-05-26T19:11:09.403Z,52.20
2019-05-26T19:13:38.101Z,52.10
2019-05-26T19:16:06.755Z,52.10
2019-05-26T19:18:35.298Z,52.30
2019-05-26T19:21:04.080Z,52.40
2019-05-26T19:23:32.797Z,52.40
2019-05-26T19:26:01.328Z,52.60
2019-05-26T19:28:29.911Z,52.60
2019-05-26T19:30:58.454Z,52.70
2019-05-26T19:33:27.015Z,52.70
2019-05-26T19:35:55.553Z,52.70
2019-05-26T19:38:24.071Z,52.90
2019-05-26T19:40:52.656Z,52.80
2019-05-26T19:43:21.273Z,52.90
2019-05-26T19:52:43.774Z,52.70
2019-05-26T19:55:12.315Z,52.70
2019-05-26T19:57:40.827Z,52.80
2019-05-26T20:00:13.550Z,52.80
2019-05-26T20:02:42.085Z,52.70
2019-05-26T20:05:10.679Z,52.70
2019-05-26T20:07:39.280Z,52.90
2019-05-26T20:10:17.327Z,53.50
2019-05-26T20:12:45.918Z,53.00
2019-05-26T20:15:15.590Z,53.20
2019-05-26T20:17:44.207Z,53.30
2019-05-26T20:20:12.743Z,53.30
2019-05-26T20:22:41.310Z,53.20
2019-05-26T20:25:11.537Z,53.40
2019-05-26T20:27:40.113Z,53.60
2019-05-26T20:30:10.030Z,53.60
2019-05-26T20:32:40.460Z,53.60
2019-05-26T20:35:09.255Z,53.70
2019-05-26T20:37:38.182Z,53.80
2019-05-26T20:40:10.074Z,53.80
2019-05-26T20:42:38.943Z,54.10
2019-05-26T20:45:08.256Z,54.00
2019-05-26T20:47:37.048Z,53.90
2019-05-26T20:50:07.493Z,53.90
2019-05-26T20:52:36.034Z,53.90
2019-05-26T20:55:08.738Z,54.00
2019-05-26T20:57:37.297Z,54.00
2019-05-26T21:00:07.435Z,54.60
2019-05-26T21:02:36.210Z,53.90
2019-05-26T21:05:06.231Z,53.90
2019-05-26T21:07:34.884Z,53.90
2019-05-26T21:10:04.651Z,53.90
2019-05-26T21:12:33.161Z,53.90
2019-05-26T21:15:01.722Z,53.90
2019-05-26T21:17:30.441Z,53.90
2019-05-26T21:19:58.927Z,53.90
2019-05-26T21:22:27.516Z,53.90
2019-05-26T21:24:56.151Z,53.90
2019-05-26T21:27:24.663Z,54.10
2019-05-26T21:29:53.146Z,54.10
2019-05-26T21:32:21.660Z,54.20
2019-05-26T21:34:50.203Z,54.30
2019-05-26T21:37:18.836Z,54.30
2019-05-26T21:39:47.374Z,54.50
2019-05-26T21:42:16.199Z,54.60
2019-05-26T21:44:44.747Z,54.80
2019-05-26T21:47:13.359Z,54.80
2019-05-26T21:49:41.929Z,54.70
2019-05-26T21:52:10.654Z,54.80
2019-05-26T21:54:41.227Z,54.70
2019-05-26T21:57:09.418Z,54.90
2019-05-26T21:59:38.178Z,55.10
2019-05-26T22:02:06.843Z,55.50
2019-05-26T22:04:35.441Z,55.70
2019-05-26T22:07:04.191Z,57.00
2019-05-26T22:09:33.010Z,56.90
2019-05-26T22:12:01.540Z,56.80
2019-05-26T22:14:30.063Z,56.80
2019-05-26T22:16:58.586Z,56.70
2019-05-26T22:19:27.084Z,56.80
2019-05-26T22:21:55.583Z,57.20
2019-05-26T22:24:24.154Z,57.60
2019-05-26T22:26:52.919Z,57.80
2019-05-26T22:29:21.533Z,58.10
2019-05-26T22:31:50.034Z,58.50
2019-05-26T22:34:18.533Z,58.40
2019-05-26T22:36:47.127Z,58.30
2019-05-26T22:39:15.917Z,58.30
2019-05-26T22:41:44.535Z,58.40
2019-05-26T22:44:13.043Z,58.30
2019-05-26T22:46:41.514Z,58.60
2019-05-26T22:49:10.148Z,58.30
2019-05-26T22:51:38.749Z,58.60
2019-05-26T22:54:07.485Z,58.50
2019-05-26T22:56:36.002Z,58.50
2019-05-26T22:59:04.542Z,58.70
2019-05-26T23:01:33.115Z,58.50
2019-05-26T23:04:03.275Z,58.50
2019-05-26T23:06:32.126Z,58.40
2019-05-26T23:09:00.834Z,58.50
2019-05-26T23:11:29.378Z,58.60
2019-05-26T23:13:57.990Z,58.70
2019-05-26T23:16:26.536Z,58.90
2019-05-26T23:18:55.052Z,59.00
2019-05-26T23:21:23.545Z,59.00
2019-05-26T23:23:52.019Z,59.20
2019-05-26T23:26:20.545Z,59.40
2019-05-26T23:28:49.040Z,59.50
2019-05-26T23:31:17.524Z,59.30
2019-05-26T23:33:46.099Z,59.20
2019-05-26T23:36:14.674Z,59.20
2019-05-26T23:38:43.236Z,59.40
2019-05-26T23:41:11.815Z,59.50
2019-05-26T23:43:40.377Z,59.40
2019-05-26T23:46:08.893Z,59.30
2019-05-26T23:48:37.508Z,59.50
2019-05-26T23:51:06.084Z,59.60
2019-05-26T23:53:34.678Z,59.60
2019-05-26T23:56:03.182Z,59.60
2019-05-26T23:58:31.705Z,59.60
